Mac Dill Air Force Base
KMCF : now visible

Airfield :











YOU CAN JOIN US ON...

 
LOGIN :

Register | Disclaimer

   EN    FR    IT 

 









Legend :    VFR   Marginal VFR   IFR   Intensive IFR   Very Intensive IFR
Visi :
Ceiling :
>= 8 km
>= 3000ft
5 to 8 km
1000 to 3000 ft
1500m to 5 km
500 to 1000 ft
800 to 1500m
200 to 500 ft
< 800m
< 200 ft
Symbols :   Thunderstorms  Fog  Heavy snow  Heavy precipitations  Wind > 20 kt






- Airport Elevation : 14 ft


KMCF - Mac Dill Air Force Base

CURRENT METAR :
  • 100650Z AUTO 24004KT 10SM OVC009 25/23 A2981 RMK AO2 SLP098 FZRANO $

EXPIRED METARs :
  • 100640Z AUTO 24003KT 10SM BKN010 OVC017 24/23 A2981 RMK AO2 SLP098 FZRANO $
  • 100611Z AUTO 00000KT 10SM BKN012 BKN020 24/22 A2982 RMK AO2 CIG 012V020 SLP101 FZRANO $
  • 100556Z AUTO 23003KT 10SM BKN016 24/22 A2982 RMK AO2 CIG 016V022 BKN V SCT SLP101 T02410221 10253 20240 56005 FZRANO $
  • 100516Z AUTO 25004KT 10SM BKN019 24/22 A2983 RMK AO2 SLP104 FZRANO $
  • 100456Z AUTO 23004KT 10SM FEW022 24/22 A2982 RMK AO2 SLP101 T02410221 402990236 FZRANO $

TAF TAF KMCF
Valid from the 09 at 17:00 until the 10 at 23:00 UTC


091700Z 0917/1023 27012G18KT 8000 VCSH FEW030 QNH2980INS
BECMG 1008/1009 27009KT 8000 VCSH BKN009 QNH2980INS
BECMG 1011/1012 27012KT 8000 -SHRA SCT010 QNH2984INS
TEMPO 1011/1014 27018G25KT 8000 -SHRA VCTS SCT010CB BKN017 OVC025
BECMG 1014/1015 32012G18KT 9000 -SHRA SCT025 QNH2988INS
BECMG 1017/1018 02012G18KT 9000 VCSH BKN030 510033 QNH2987INS TX27/0918Z TN20/1009Z LAST NO AMDS AFT 0922 NEXT 1012



MET'MAP, your aeronautical weather chart ! - Copyright ORBIFLY December 2007 - Disclaimer

ORBIFLY MET'MAP TEAM :

Programming & Development : Alexandra Zaïnal
Concept & original design : Baudouin d'Aumeries
Assistance for programming : Marc-Olivier Méhu
Technical & hardware support : Manuel Goepfert

Contact : metmap@orbifly.com




SOURCES & CREDITS :

   NOAA       Earth
Advisory